sensor_id;sensor_type;location;lat;lon;timestamp;P1;durP1;ratioP1;P2;durP2;ratioP2
62071;SDS011;48031;48.542;13.232;2023-05-19T00:03:26;5.82;;;3.78;;
62071;SDS011;48031;48.542;13.232;2023-05-19T00:07:29;5.05;;;3.75;;
62071;SDS011;48031;48.542;13.232;2023-05-19T00:11:33;6.05;;;3.53;;
62071;SDS011;48031;48.542;13.232;2023-05-19T00:15:38;6.05;;;3.88;;
62071;SDS011;48031;48.542;13.232;2023-05-19T00:19:40;4.97;;;3.72;;
62071;SDS011;48031;48.542;13.232;2023-05-19T00:23:42;7.60;;;4.22;;
62071;SDS011;48031;48.542;13.232;2023-05-19T00:27:44;6.28;;;4.03;;
62071;SDS011;48031;48.542;13.232;2023-05-19T00:31:46;7.95;;;4.20;;
62071;SDS011;48031;48.542;13.232;2023-05-19T00:35:48;6.28;;;4.07;;
62071;SDS011;48031;48.542;13.232;2023-05-19T00:39:49;8.88;;;4.38;;
62071;SDS011;48031;48.542;13.232;2023-05-19T00:43:51;5.50;;;3.72;;
62071;SDS011;48031;48.542;13.232;2023-05-19T00:47:53;6.13;;;3.45;;
62071;SDS011;48031;48.542;13.232;2023-05-19T00:51:55;5.75;;;3.97;;
62071;SDS011;48031;48.542;13.232;2023-05-19T00:55:58;6.15;;;4.22;;
62071;SDS011;48031;48.542;13.232;2023-05-19T01:00:01;5.15;;;3.90;;
62071;SDS011;48031;48.542;13.232;2023-05-19T01:04:03;6.88;;;4.22;;
62071;SDS011;48031;48.542;13.232;2023-05-19T01:08:06;7.13;;;4.45;;
62071;SDS011;48031;48.542;13.232;2023-05-19T01:12:10;6.63;;;3.92;;
62071;SDS011;48031;48.542;13.232;2023-05-19T01:20:34;6.68;;;3.95;;
62071;SDS011;48031;48.542;13.232;2023-05-19T01:33:28;7.43;;;4.00;;
62071;SDS011;48031;48.542;13.232;2023-05-19T01:37:31;8.55;;;4.07;;
62071;SDS011;48031;48.542;13.232;2023-05-19T01:41:34;6.25;;;3.80;;
62071;SDS011;48031;48.542;13.232;2023-05-19T01:45:38;5.53;;;3.55;;
62071;SDS011;48031;48.542;13.232;2023-05-19T01:49:40;6.35;;;3.28;;
62071;SDS011;48031;48.542;13.232;2023-05-19T01:53:42;6.68;;;3.10;;
62071;SDS011;48031;48.542;13.232;2023-05-19T02:01:58;7.85;;;2.97;;
62071;SDS011;48031;48.542;13.232;2023-05-19T02:10:36;5.10;;;2.70;;
62071;SDS011;48031;48.542;13.232;2023-05-19T02:14:48;10.65;;;2.70;;
62071;SDS011;48031;48.542;13.232;2023-05-19T02:18:53;3.17;;;2.42;;
62071;SDS011;48031;48.542;13.232;2023-05-19T02:22:55;6.30;;;2.85;;
62071;SDS011;48031;48.542;13.232;2023-05-19T02:26:57;4.45;;;2.67;;
62071;SDS011;48031;48.542;13.232;2023-05-19T02:30:59;3.15;;;2.47;;
62071;SDS011;48031;48.542;13.232;2023-05-19T02:35:02;3.58;;;2.47;;
62071;SDS011;48031;48.542;13.232;2023-05-19T02:39:04;4.45;;;2.80;;
62071;SDS011;48031;48.542;13.232;2023-05-19T02:43:06;4.70;;;2.85;;
62071;SDS011;48031;48.542;13.232;2023-05-19T02:47:08;5.22;;;2.70;;
62071;SDS011;48031;48.542;13.232;2023-05-19T02:51:10;6.43;;;3.50;;
62071;SDS011;48031;48.542;13.232;2023-05-19T02:55:12;6.15;;;2.88;;
62071;SDS011;48031;48.542;13.232;2023-05-19T02:59:17;4.05;;;2.80;;
62071;SDS011;48031;48.542;13.232;2023-05-19T03:03:19;5.75;;;2.95;;
62071;SDS011;48031;48.542;13.232;2023-05-19T03:07:21;5.53;;;2.88;;
62071;SDS011;48031;48.542;13.232;2023-05-19T03:11:25;6.10;;;3.10;;
62071;SDS011;48031;48.542;13.232;2023-05-19T03:15:27;3.85;;;2.72;;
62071;SDS011;48031;48.542;13.232;2023-05-19T03:19:29;4.90;;;3.00;;
62071;SDS011;48031;48.542;13.232;2023-05-19T03:23:33;4.82;;;3.17;;
62071;SDS011;48031;48.542;13.232;2023-05-19T03:27:35;5.90;;;3.03;;
62071;SDS011;48031;48.542;13.232;2023-05-19T03:31:37;4.70;;;3.33;;
62071;SDS011;48031;48.542;13.232;2023-05-19T03:35:39;4.88;;;3.38;;
62071;SDS011;48031;48.542;13.232;2023-05-19T03:39:41;4.82;;;2.78;;
62071;SDS011;48031;48.542;13.232;2023-05-19T03:43:44;6.07;;;3.15;;
62071;SDS011;48031;48.542;13.232;2023-05-19T03:47:46;5.03;;;3.15;;
62071;SDS011;48031;48.542;13.232;2023-05-19T03:52:01;4.80;;;3.42;;
62071;SDS011;48031;48.542;13.232;2023-05-19T03:56:18;5.35;;;3.13;;
62071;SDS011;48031;48.542;13.232;2023-05-19T04:00:23;7.05;;;3.20;;
62071;SDS011;48031;48.542;13.232;2023-05-19T04:04:26;6.60;;;3.50;;
62071;SDS011;48031;48.542;13.232;2023-05-19T04:08:29;4.28;;;2.90;;
62071;SDS011;48031;48.542;13.232;2023-05-19T04:12:31;5.70;;;3.70;;
62071;SDS011;48031;48.542;13.232;2023-05-19T04:16:33;5.15;;;3.30;;
62071;SDS011;48031;48.542;13.232;2023-05-19T04:20:36;5.30;;;3.33;;
62071;SDS011;48031;48.542;13.232;2023-05-19T04:24:38;4.43;;;2.97;;
62071;SDS011;48031;48.542;13.232;2023-05-19T04:28:41;3.95;;;3.03;;
62071;SDS011;48031;48.542;13.232;2023-05-19T04:32:45;6.60;;;3.45;;
62071;SDS011;48031;48.542;13.232;2023-05-19T04:36:48;4.63;;;3.20;;
62071;SDS011;48031;48.542;13.232;2023-05-19T04:40:54;4.13;;;3.10;;
62071;SDS011;48031;48.542;13.232;2023-05-19T04:44:57;3.85;;;3.20;;
62071;SDS011;48031;48.542;13.232;2023-05-19T04:49:02;6.63;;;3.45;;
62071;SDS011;48031;48.542;13.232;2023-05-19T04:53:04;5.45;;;3.47;;
62071;SDS011;48031;48.542;13.232;2023-05-19T04:57:07;5.43;;;3.00;;
62071;SDS011;48031;48.542;13.232;2023-05-19T05:01:13;4.13;;;3.25;;
62071;SDS011;48031;48.542;13.232;2023-05-19T05:05:17;6.90;;;3.35;;
62071;SDS011;48031;48.542;13.232;2023-05-19T05:09:19;5.32;;;3.70;;
62071;SDS011;48031;48.542;13.232;2023-05-19T05:13:23;6.70;;;3.60;;
62071;SDS011;48031;48.542;13.232;2023-05-19T05:17:26;5.07;;;2.83;;
62071;SDS011;48031;48.542;13.232;2023-05-19T05:21:28;4.95;;;3.13;;
62071;SDS011;48031;48.542;13.232;2023-05-19T05:25:32;3.20;;;2.83;;
62071;SDS011;48031;48.542;13.232;2023-05-19T05:29:35;6.32;;;2.60;;
62071;SDS011;48031;48.542;13.232;2023-05-19T05:33:39;4.40;;;2.97;;
62071;SDS011;48031;48.542;13.232;2023-05-19T05:37:42;7.40;;;3.25;;
62071;SDS011;48031;48.542;13.232;2023-05-19T05:41:43;7.35;;;3.00;;
62071;SDS011;48031;48.542;13.232;2023-05-19T05:45:46;3.60;;;2.80;;
62071;SDS011;48031;48.542;13.232;2023-05-19T05:49:49;3.38;;;2.65;;
62071;SDS011;48031;48.542;13.232;2023-05-19T05:53:54;4.07;;;3.00;;
62071;SDS011;48031;48.542;13.232;2023-05-19T05:58:03;5.95;;;2.75;;
62071;SDS011;48031;48.542;13.232;2023-05-19T06:02:05;3.95;;;2.53;;
62071;SDS011;48031;48.542;13.232;2023-05-19T06:06:09;4.90;;;2.58;;
62071;SDS011;48031;48.542;13.232;2023-05-19T06:10:11;3.58;;;2.28;;
62071;SDS011;48031;48.542;13.232;2023-05-19T06:14:13;4.25;;;2.50;;
62071;SDS011;48031;48.542;13.232;2023-05-19T06:18:41;3.10;;;2.50;;
62071;SDS011;48031;48.542;13.232;2023-05-19T06:22:42;5.80;;;2.80;;
62071;SDS011;48031;48.542;13.232;2023-05-19T06:26:45;3.40;;;2.33;;
62071;SDS011;48031;48.542;13.232;2023-05-19T06:30:47;4.40;;;2.60;;
62071;SDS011;48031;48.542;13.232;2023-05-19T06:35:16;3.88;;;2.15;;
62071;SDS011;48031;48.542;13.232;2023-05-19T06:39:18;3.85;;;2.10;;
62071;SDS011;48031;48.542;13.232;2023-05-19T06:43:20;3.92;;;2.88;;
62071;SDS011;48031;48.542;13.232;2023-05-19T06:47:39;3.88;;;2.60;;
62071;SDS011;48031;48.542;13.232;2023-05-19T06:51:43;3.60;;;2.50;;
62071;SDS011;48031;48.542;13.232;2023-05-19T06:55:45;3.72;;;2.40;;
62071;SDS011;48031;48.542;13.232;2023-05-19T07:00:00;5.47;;;3.05;;
62071;SDS011;48031;48.542;13.232;2023-05-19T07:04:03;2.92;;;2.53;;
62071;SDS011;48031;48.542;13.232;2023-05-19T07:08:05;2.25;;;2.03;;
62071;SDS011;48031;48.542;13.232;2023-05-19T07:12:09;3.38;;;2.10;;
62071;SDS011;48031;48.542;13.232;2023-05-19T07:16:11;3.65;;;2.58;;
62071;SDS011;48031;48.542;13.232;2023-05-19T07:20:13;3.47;;;2.22;;
62071;SDS011;48031;48.542;13.232;2023-05-19T07:24:15;3.40;;;2.35;;
62071;SDS011;48031;48.542;13.232;2023-05-19T07:28:18;3.70;;;2.60;;
62071;SDS011;48031;48.542;13.232;2023-05-19T07:32:20;3.22;;;2.55;;
62071;SDS011;48031;48.542;13.232;2023-05-19T07:36:22;3.63;;;2.33;;
62071;SDS011;48031;48.542;13.232;2023-05-19T07:40:24;3.78;;;2.25;;
62071;SDS011;48031;48.542;13.232;2023-05-19T07:44:26;4.85;;;2.67;;
62071;SDS011;48031;48.542;13.232;2023-05-19T07:48:28;2.78;;;2.38;;
62071;SDS011;48031;48.542;13.232;2023-05-19T07:52:30;2.67;;;1.75;;
62071;SDS011;48031;48.542;13.232;2023-05-19T07:56:32;3.53;;;2.55;;
62071;SDS011;48031;48.542;13.232;2023-05-19T08:00:34;2.63;;;2.40;;
62071;SDS011;48031;48.542;13.232;2023-05-19T08:04:36;2.75;;;2.00;;
62071;SDS011;48031;48.542;13.232;2023-05-19T08:08:38;3.63;;;2.15;;
62071;SDS011;48031;48.542;13.232;2023-05-19T08:12:40;3.83;;;3.00;;
62071;SDS011;48031;48.542;13.232;2023-05-19T08:16:42;3.83;;;2.47;;
62071;SDS011;48031;48.542;13.232;2023-05-19T08:20:45;2.90;;;2.35;;
62071;SDS011;48031;48.542;13.232;2023-05-19T08:24:47;3.60;;;2.50;;
62071;SDS011;48031;48.542;13.232;2023-05-19T08:28:50;3.70;;;2.20;;
62071;SDS011;48031;48.542;13.232;2023-05-19T08:32:52;2.70;;;2.17;;
62071;SDS011;48031;48.542;13.232;2023-05-19T08:36:54;3.60;;;2.38;;
62071;SDS011;48031;48.542;13.232;2023-05-19T08:40:58;3.45;;;2.20;;
62071;SDS011;48031;48.542;13.232;2023-05-19T08:45:00;2.90;;;2.60;;
62071;SDS011;48031;48.542;13.232;2023-05-19T08:49:10;2.75;;;2.05;;
62071;SDS011;48031;48.542;13.232;2023-05-19T08:53:17;3.17;;;2.45;;
62071;SDS011;48031;48.542;13.232;2023-05-19T08:57:32;2.88;;;2.50;;
62071;SDS011;48031;48.542;13.232;2023-05-19T09:01:34;2.97;;;2.40;;
62071;SDS011;48031;48.542;13.232;2023-05-19T09:05:42;4.72;;;2.75;;
62071;SDS011;48031;48.542;13.232;2023-05-19T09:09:44;2.88;;;2.33;;
62071;SDS011;48031;48.542;13.232;2023-05-19T09:13:47;3.80;;;2.90;;
62071;SDS011;48031;48.542;13.232;2023-05-19T09:17:50;4.20;;;3.08;;
62071;SDS011;48031;48.542;13.232;2023-05-19T09:22:01;4.90;;;2.30;;
62071;SDS011;48031;48.542;13.232;2023-05-19T09:26:07;2.85;;;2.33;;
62071;SDS011;48031;48.542;13.232;2023-05-19T09:30:09;4.35;;;2.75;;
62071;SDS011;48031;48.542;13.232;2023-05-19T09:34:11;4.75;;;3.00;;
62071;SDS011;48031;48.542;13.232;2023-05-19T09:38:17;4.38;;;2.67;;
62071;SDS011;48031;48.542;13.232;2023-05-19T09:42:23;3.60;;;2.65;;
62071;SDS011;48031;48.542;13.232;2023-05-19T09:46:27;5.40;;;2.90;;
62071;SDS011;48031;48.542;13.232;2023-05-19T09:50:30;3.75;;;3.28;;
62071;SDS011;48031;48.542;13.232;2023-05-19T09:54:32;4.80;;;3.08;;
62071;SDS011;48031;48.542;13.232;2023-05-19T09:58:35;8.63;;;3.13;;
62071;SDS011;48031;48.542;13.232;2023-05-19T10:02:41;3.33;;;2.88;;
62071;SDS011;48031;48.542;13.232;2023-05-19T10:06:44;3.58;;;2.38;;
62071;SDS011;48031;48.542;13.232;2023-05-19T10:10:46;4.00;;;3.00;;
62071;SDS011;48031;48.542;13.232;2023-05-19T10:14:48;5.68;;;2.55;;
62071;SDS011;48031;48.542;13.232;2023-05-19T10:18:51;2.92;;;2.53;;
62071;SDS011;48031;48.542;13.232;2023-05-19T10:22:55;4.18;;;3.05;;
62071;SDS011;48031;48.542;13.232;2023-05-19T10:27:07;3.45;;;2.58;;
62071;SDS011;48031;48.542;13.232;2023-05-19T10:31:13;2.85;;;2.55;;
62071;SDS011;48031;48.542;13.232;2023-05-19T10:39:34;4.38;;;2.55;;
62071;SDS011;48031;48.542;13.232;2023-05-19T10:48:21;4.63;;;3.13;;
62071;SDS011;48031;48.542;13.232;2023-05-19T10:52:23;2.50;;;2.30;;
62071;SDS011;48031;48.542;13.232;2023-05-19T10:56:27;3.30;;;2.13;;
62071;SDS011;48031;48.542;13.232;2023-05-19T11:00:30;3.10;;;2.40;;
62071;SDS011;48031;48.542;13.232;2023-05-19T11:04:45;2.47;;;2.28;;
62071;SDS011;48031;48.542;13.232;2023-05-19T11:09:00;2.42;;;2.22;;
62071;SDS011;48031;48.542;13.232;2023-05-19T11:13:19;3.13;;;2.22;;
62071;SDS011;48031;48.542;13.232;2023-05-19T11:17:23;2.88;;;2.38;;
62071;SDS011;48031;48.542;13.232;2023-05-19T11:25:55;2.88;;;1.83;;
62071;SDS011;48031;48.542;13.232;2023-05-19T11:30:00;2.78;;;1.77;;
62071;SDS011;48031;48.542;13.232;2023-05-19T11:34:05;2.10;;;1.90;;
62071;SDS011;48031;48.542;13.232;2023-05-19T11:38:09;2.20;;;2.00;;
62071;SDS011;48031;48.542;13.232;2023-05-19T11:42:12;2.28;;;2.08;;
62071;SDS011;48031;48.542;13.232;2023-05-19T11:46:14;3.78;;;2.00;;
62071;SDS011;48031;48.542;13.232;2023-05-19T11:50:16;3.65;;;2.30;;
62071;SDS011;48031;48.542;13.232;2023-05-19T11:54:18;2.65;;;1.65;;
62071;SDS011;48031;48.542;13.232;2023-05-19T11:58:23;2.17;;;1.90;;
62071;SDS011;48031;48.542;13.232;2023-05-19T12:02:27;2.13;;;1.92;;
62071;SDS011;48031;48.542;13.232;2023-05-19T12:06:31;2.40;;;2.20;;
62071;SDS011;48031;48.542;13.232;2023-05-19T12:10:34;2.88;;;2.35;;
62071;SDS011;48031;48.542;13.232;2023-05-19T12:14:36;2.90;;;2.47;;
62071;SDS011;48031;48.542;13.232;2023-05-19T12:18:38;1.98;;;1.77;;
62071;SDS011;48031;48.542;13.232;2023-05-19T12:22:40;2.33;;;2.00;;
62071;SDS011;48031;48.542;13.232;2023-05-19T12:26:42;1.77;;;1.67;;
62071;SDS011;48031;48.542;13.232;2023-05-19T12:30:48;2.28;;;2.00;;
62071;SDS011;48031;48.542;13.232;2023-05-19T12:34:54;4.90;;;2.63;;
62071;SDS011;48031;48.542;13.232;2023-05-19T12:38:56;2.65;;;1.92;;
62071;SDS011;48031;48.542;13.232;2023-05-19T12:42:58;2.50;;;2.30;;
62071;SDS011;48031;48.542;13.232;2023-05-19T12:47:00;3.50;;;2.10;;
62071;SDS011;48031;48.542;13.232;2023-05-19T12:51:06;3.13;;;2.15;;
62071;SDS011;48031;48.542;13.232;2023-05-19T12:55:08;4.18;;;1.90;;
62071;SDS011;48031;48.542;13.232;2023-05-19T12:59:19;3.17;;;2.28;;
62071;SDS011;48031;48.542;13.232;2023-05-19T13:03:38;3.25;;;2.22;;
62071;SDS011;48031;48.542;13.232;2023-05-19T13:07:51;3.00;;;2.20;;
62071;SDS011;48031;48.542;13.232;2023-05-19T13:12:05;2.78;;;2.22;;
62071;SDS011;48031;48.542;13.232;2023-05-19T13:16:07;2.30;;;2.00;;
62071;SDS011;48031;48.542;13.232;2023-05-19T13:20:09;2.25;;;2.00;;
62071;SDS011;48031;48.542;13.232;2023-05-19T13:24:12;2.80;;;2.10;;
62071;SDS011;48031;48.542;13.232;2023-05-19T13:28:14;1.95;;;1.80;;
62071;SDS011;48031;48.542;13.232;2023-05-19T13:32:16;4.28;;;1.90;;
62071;SDS011;48031;48.542;13.232;2023-05-19T13:36:18;2.10;;;1.90;;
62071;SDS011;48031;48.542;13.232;2023-05-19T13:40:19;2.10;;;1.90;;
62071;SDS011;48031;48.542;13.232;2023-05-19T13:44:21;1.67;;;1.58;;
62071;SDS011;48031;48.542;13.232;2023-05-19T13:48:26;2.10;;;1.80;;
62071;SDS011;48031;48.542;13.232;2023-05-19T13:52:28;2.03;;;1.90;;
62071;SDS011;48031;48.542;13.232;2023-05-19T13:56:31;1.70;;;1.60;;
62071;SDS011;48031;48.542;13.232;2023-05-19T14:00:32;2.00;;;1.83;;
62071;SDS011;48031;48.542;13.232;2023-05-19T14:04:37;1.70;;;1.60;;
62071;SDS011;48031;48.542;13.232;2023-05-19T14:08:39;2.58;;;1.90;;
62071;SDS011;48031;48.542;13.232;2023-05-19T14:12:41;1.80;;;1.45;;
62071;SDS011;48031;48.542;13.232;2023-05-19T14:17:03;1.90;;;1.70;;
62071;SDS011;48031;48.542;13.232;2023-05-19T14:21:05;1.90;;;1.80;;
62071;SDS011;48031;48.542;13.232;2023-05-19T14:25:07;1.40;;;1.30;;
62071;SDS011;48031;48.542;13.232;2023-05-19T14:29:09;2.33;;;1.50;;
62071;SDS011;48031;48.542;13.232;2023-05-19T14:33:11;3.28;;;1.90;;
62071;SDS011;48031;48.542;13.232;2023-05-19T14:37:13;3.72;;;1.70;;
62071;SDS011;48031;48.542;13.232;2023-05-19T14:41:15;3.28;;;1.80;;
62071;SDS011;48031;48.542;13.232;2023-05-19T14:45:17;1.88;;;1.30;;
62071;SDS011;48031;48.542;13.232;2023-05-19T14:49:18;2.33;;;1.70;;
62071;SDS011;48031;48.542;13.232;2023-05-19T14:53:20;2.10;;;1.58;;
62071;SDS011;48031;48.542;13.232;2023-05-19T14:57:22;1.88;;;1.67;;
62071;SDS011;48031;48.542;13.232;2023-05-19T15:01:24;2.38;;;1.70;;
62071;SDS011;48031;48.542;13.232;2023-05-19T15:05:26;1.90;;;1.52;;
62071;SDS011;48031;48.542;13.232;2023-05-19T15:09:28;2.47;;;1.60;;
62071;SDS011;48031;48.542;13.232;2023-05-19T15:13:30;1.90;;;1.60;;
62071;SDS011;48031;48.542;13.232;2023-05-19T15:17:31;1.83;;;1.67;;
62071;SDS011;48031;48.542;13.232;2023-05-19T15:21:33;1.88;;;1.70;;
62071;SDS011;48031;48.542;13.232;2023-05-19T15:25:35;1.58;;;1.48;;
62071;SDS011;48031;48.542;13.232;2023-05-19T15:29:37;1.75;;;1.52;;
62071;SDS011;48031;48.542;13.232;2023-05-19T15:33:39;2.15;;;1.80;;
62071;SDS011;48031;48.542;13.232;2023-05-19T15:37:41;2.20;;;1.70;;
62071;SDS011;48031;48.542;13.232;2023-05-19T15:41:43;2.42;;;1.88;;
62071;SDS011;48031;48.542;13.232;2023-05-19T15:45:45;1.58;;;1.48;;
62071;SDS011;48031;48.542;13.232;2023-05-19T15:49:47;1.52;;;1.42;;
62071;SDS011;48031;48.542;13.232;2023-05-19T15:53:49;1.90;;;1.50;;
62071;SDS011;48031;48.542;13.232;2023-05-19T15:57:51;1.65;;;1.50;;
62071;SDS011;48031;48.542;13.232;2023-05-19T16:01:52;1.73;;;1.60;;
62071;SDS011;48031;48.542;13.232;2023-05-19T16:05:54;2.00;;;1.77;;
62071;SDS011;48031;48.542;13.232;2023-05-19T16:09:57;1.88;;;1.50;;
62071;SDS011;48031;48.542;13.232;2023-05-19T16:13:58;2.35;;;1.58;;
62071;SDS011;48031;48.542;13.232;2023-05-19T16:18:00;2.35;;;1.75;;
62071;SDS011;48031;48.542;13.232;2023-05-19T16:22:02;1.80;;;1.52;;
62071;SDS011;48031;48.542;13.232;2023-05-19T16:26:04;3.30;;;1.50;;
62071;SDS011;48031;48.542;13.232;2023-05-19T16:30:06;1.65;;;1.50;;
62071;SDS011;48031;48.542;13.232;2023-05-19T16:34:08;2.35;;;1.67;;
62071;SDS011;48031;48.542;13.232;2023-05-19T16:38:10;1.70;;;1.60;;
62071;SDS011;48031;48.542;13.232;2023-05-19T16:42:12;2.60;;;1.80;;
62071;SDS011;48031;48.542;13.232;2023-05-19T16:46:14;1.95;;;1.77;;
62071;SDS011;48031;48.542;13.232;2023-05-19T16:50:16;2.75;;;1.90;;
62071;SDS011;48031;48.542;13.232;2023-05-19T16:54:18;1.65;;;1.55;;
62071;SDS011;48031;48.542;13.232;2023-05-19T16:58:21;3.47;;;1.98;;
62071;SDS011;48031;48.542;13.232;2023-05-19T17:02:23;1.75;;;1.33;;
62071;SDS011;48031;48.542;13.232;2023-05-19T17:06:25;2.75;;;1.75;;
62071;SDS011;48031;48.542;13.232;2023-05-19T17:10:27;2.00;;;1.80;;
62071;SDS011;48031;48.542;13.232;2023-05-19T17:14:29;2.08;;;1.88;;
62071;SDS011;48031;48.542;13.232;2023-05-19T17:18:30;2.17;;;1.90;;
62071;SDS011;48031;48.542;13.232;2023-05-19T17:22:32;2.50;;;1.80;;
62071;SDS011;48031;48.542;13.232;2023-05-19T17:26:34;2.10;;;1.90;;
62071;SDS011;48031;48.542;13.232;2023-05-19T17:30:38;2.30;;;2.10;;
62071;SDS011;48031;48.542;13.232;2023-05-19T17:34:41;2.13;;;1.80;;
62071;SDS011;48031;48.542;13.232;2023-05-19T17:38:43;2.45;;;1.90;;
62071;SDS011;48031;48.542;13.232;2023-05-19T17:42:44;4.10;;;2.20;;
62071;SDS011;48031;48.542;13.232;2023-05-19T17:46:46;2.78;;;2.15;;
62071;SDS011;48031;48.542;13.232;2023-05-19T17:50:48;1.98;;;1.70;;
62071;SDS011;48031;48.542;13.232;2023-05-19T17:54:50;2.58;;;2.20;;
62071;SDS011;48031;48.542;13.232;2023-05-19T17:58:53;2.13;;;1.80;;
62071;SDS011;48031;48.542;13.232;2023-05-19T18:02:55;2.50;;;2.30;;
62071;SDS011;48031;48.542;13.232;2023-05-19T18:06:58;2.00;;;1.77;;
62071;SDS011;48031;48.542;13.232;2023-05-19T18:11:01;4.50;;;1.80;;
62071;SDS011;48031;48.542;13.232;2023-05-19T18:15:04;2.28;;;1.95;;
62071;SDS011;48031;48.542;13.232;2023-05-19T18:19:07;2.63;;;2.30;;
62071;SDS011;48031;48.542;13.232;2023-05-19T18:23:09;3.60;;;2.00;;
62071;SDS011;48031;48.542;13.232;2023-05-19T18:27:11;2.05;;;1.85;;
62071;SDS011;48031;48.542;13.232;2023-05-19T18:31:13;3.13;;;2.60;;
62071;SDS011;48031;48.542;13.232;2023-05-19T18:35:20;3.60;;;2.55;;
62071;SDS011;48031;48.542;13.232;2023-05-19T18:39:22;6.18;;;2.70;;
62071;SDS011;48031;48.542;13.232;2023-05-19T18:43:24;3.10;;;2.40;;
62071;SDS011;48031;48.542;13.232;2023-05-19T18:47:26;2.97;;;2.60;;
62071;SDS011;48031;48.542;13.232;2023-05-19T18:51:28;3.20;;;2.67;;
62071;SDS011;48031;48.542;13.232;2023-05-19T18:55:30;2.80;;;2.10;;
62071;SDS011;48031;48.542;13.232;2023-05-19T18:59:32;3.08;;;2.65;;
62071;SDS011;48031;48.542;13.232;2023-05-19T19:03:34;3.25;;;2.60;;
62071;SDS011;48031;48.542;13.232;2023-05-19T19:07:39;3.78;;;2.88;;
62071;SDS011;48031;48.542;13.232;2023-05-19T19:11:42;2.72;;;2.42;;
62071;SDS011;48031;48.542;13.232;2023-05-19T19:15:44;3.00;;;2.55;;
62071;SDS011;48031;48.542;13.232;2023-05-19T19:19:46;4.00;;;2.67;;
62071;SDS011;48031;48.542;13.232;2023-05-19T19:23:48;3.05;;;2.58;;
62071;SDS011;48031;48.542;13.232;2023-05-19T19:27:51;4.68;;;2.80;;
62071;SDS011;48031;48.542;13.232;2023-05-19T19:31:52;4.20;;;2.97;;
62071;SDS011;48031;48.542;13.232;2023-05-19T19:35:54;3.67;;;2.90;;
62071;SDS011;48031;48.542;13.232;2023-05-19T19:39:56;3.70;;;3.05;;
62071;SDS011;48031;48.542;13.232;2023-05-19T19:43:58;3.25;;;2.40;;
62071;SDS011;48031;48.542;13.232;2023-05-19T19:48:00;4.38;;;3.10;;
62071;SDS011;48031;48.542;13.232;2023-05-19T19:52:02;3.47;;;2.78;;
62071;SDS011;48031;48.542;13.232;2023-05-19T19:56:04;3.95;;;2.75;;
62071;SDS011;48031;48.542;13.232;2023-05-19T20:00:06;4.30;;;3.22;;
62071;SDS011;48031;48.542;13.232;2023-05-19T20:04:09;4.40;;;3.15;;
62071;SDS011;48031;48.542;13.232;2023-05-19T20:08:11;4.47;;;2.97;;
62071;SDS011;48031;48.542;13.232;2023-05-19T20:12:16;3.65;;;3.00;;
62071;SDS011;48031;48.542;13.232;2023-05-19T20:16:18;3.97;;;3.20;;
62071;SDS011;48031;48.542;13.232;2023-05-19T20:20:20;5.22;;;2.90;;
62071;SDS011;48031;48.542;13.232;2023-05-19T20:24:22;8.10;;;4.00;;
62071;SDS011;48031;48.542;13.232;2023-05-19T20:28:24;4.63;;;3.47;;
62071;SDS011;48031;48.542;13.232;2023-05-19T20:32:26;6.20;;;4.10;;
62071;SDS011;48031;48.542;13.232;2023-05-19T20:36:28;4.63;;;3.25;;
62071;SDS011;48031;48.542;13.232;2023-05-19T20:40:30;3.50;;;2.97;;
62071;SDS011;48031;48.542;13.232;2023-05-19T20:44:32;6.18;;;3.88;;
62071;SDS011;48031;48.542;13.232;2023-05-19T20:48:34;5.22;;;3.70;;
62071;SDS011;48031;48.542;13.232;2023-05-19T20:52:36;4.75;;;3.50;;
62071;SDS011;48031;48.542;13.232;2023-05-19T20:56:38;4.38;;;3.13;;
62071;SDS011;48031;48.542;13.232;2023-05-19T21:00:40;4.55;;;2.90;;
62071;SDS011;48031;48.542;13.232;2023-05-19T21:04:42;4.45;;;3.42;;
62071;SDS011;48031;48.542;13.232;2023-05-19T21:08:45;5.75;;;3.05;;
62071;SDS011;48031;48.542;13.232;2023-05-19T21:12:47;3.75;;;3.20;;
62071;SDS011;48031;48.542;13.232;2023-05-19T21:16:49;4.97;;;3.30;;
62071;SDS011;48031;48.542;13.232;2023-05-19T21:20:54;4.43;;;3.13;;
62071;SDS011;48031;48.542;13.232;2023-05-19T21:24:56;5.07;;;3.35;;
62071;SDS011;48031;48.542;13.232;2023-05-19T21:28:57;4.55;;;3.63;;
62071;SDS011;48031;48.542;13.232;2023-05-19T21:32:59;3.45;;;3.03;;
62071;SDS011;48031;48.542;13.232;2023-05-19T21:37:01;3.92;;;3.28;;
62071;SDS011;48031;48.542;13.232;2023-05-19T21:41:03;4.35;;;3.25;;
62071;SDS011;48031;48.542;13.232;2023-05-19T21:45:05;5.00;;;3.10;;
62071;SDS011;48031;48.542;13.232;2023-05-19T21:49:07;3.20;;;2.53;;
62071;SDS011;48031;48.542;13.232;2023-05-19T21:53:09;5.43;;;3.28;;
62071;SDS011;48031;48.542;13.232;2023-05-19T21:57:11;5.38;;;3.08;;
62071;SDS011;48031;48.542;13.232;2023-05-19T22:01:13;5.13;;;3.30;;
62071;SDS011;48031;48.542;13.232;2023-05-19T22:05:15;4.45;;;3.25;;
62071;SDS011;48031;48.542;13.232;2023-05-19T22:09:17;3.97;;;2.90;;
62071;SDS011;48031;48.542;13.232;2023-05-19T22:13:19;3.88;;;2.65;;
62071;SDS011;48031;48.542;13.232;2023-05-19T22:17:22;3.80;;;2.95;;
62071;SDS011;48031;48.542;13.232;2023-05-19T22:21:23;5.10;;;3.45;;
62071;SDS011;48031;48.542;13.232;2023-05-19T22:25:26;3.95;;;3.00;;
62071;SDS011;48031;48.542;13.232;2023-05-19T22:29:28;5.65;;;2.97;;
62071;SDS011;48031;48.542;13.232;2023-05-19T22:33:30;5.70;;;3.33;;
62071;SDS011;48031;48.542;13.232;2023-05-19T22:37:31;6.00;;;3.67;;
62071;SDS011;48031;48.542;13.232;2023-05-19T22:41:33;4.15;;;3.05;;
62071;SDS011;48031;48.542;13.232;2023-05-19T22:45:35;3.45;;;3.05;;
62071;SDS011;48031;48.542;13.232;2023-05-19T22:49:38;3.80;;;2.67;;
62071;SDS011;48031;48.542;13.232;2023-05-19T22:53:41;4.45;;;2.83;;
62071;SDS011;48031;48.542;13.232;2023-05-19T22:57:44;3.13;;;2.10;;
62071;SDS011;48031;48.542;13.232;2023-05-19T23:01:46;4.88;;;3.50;;
62071;SDS011;48031;48.542;13.232;2023-05-19T23:05:48;5.45;;;3.15;;
62071;SDS011;48031;48.542;13.232;2023-05-19T23:09:50;3.60;;;2.97;;
62071;SDS011;48031;48.542;13.232;2023-05-19T23:13:52;3.30;;;2.65;;
62071;SDS011;48031;48.542;13.232;2023-05-19T23:17:54;6.70;;;3.38;;
62071;SDS011;48031;48.542;13.232;2023-05-19T23:21:56;4.90;;;2.90;;
62071;SDS011;48031;48.542;13.232;2023-05-19T23:25:58;6.35;;;3.30;;
62071;SDS011;48031;48.542;13.232;2023-05-19T23:30:00;5.45;;;3.60;;
62071;SDS011;48031;48.542;13.232;2023-05-19T23:34:02;4.25;;;3.30;;
62071;SDS011;48031;48.542;13.232;2023-05-19T23:38:04;4.35;;;3.40;;
62071;SDS011;48031;48.542;13.232;2023-05-19T23:42:05;5.00;;;3.63;;
62071;SDS011;48031;48.542;13.232;2023-05-19T23:46:07;5.97;;;3.70;;
62071;SDS011;48031;48.542;13.232;2023-05-19T23:50:09;5.78;;;3.55;;
62071;SDS011;48031;48.542;13.232;2023-05-19T23:54:11;4.55;;;3.50;;
62071;SDS011;48031;48.542;13.232;2023-05-19T23:58:13;5.10;;;3.13;;
